Hagatna, GU (96910)

8:37 PM ChST on March 30, 2017 (GMT +1000)
Maite | | Change Station
Active Advisory: High Surf Advisory Active Notice: High Surf Advisory

Elev 140 ft 13.48 °N, 144.76 °E | Updated 7 seconds ago

Mostly Cloudy
Mostly Cloudy
81.3 °F
Feels Like 87 °F
N
8.0
Wind Variable Wind from NNE
Gusts 17.0 mph

Today
High -- | Low -- °F
--% Chance of Precip.
Yesterday
High -- | Low -- °F
Precip. -- in
Pressure 29.95 in
Visibility 9.0 miles
Clouds Few 2100 ft
Scattered Clouds 2900 ft
Mostly Cloudy 4600 ft
Heat Index 87 °F
Dew Point 75 °F
Humidity 81%
Rainfall 0.11 in
Snow Depth Not available.
6:18 AM 6:32 PM
Waxing Crescent, 7% visible
METAR PGUM 300954Z 06013G21KT 9SM FEW021 SCT029 BKN046 27/24 A2997 RMK AO2 RAB00E09B28E40 SLP140 P0000 T02720244
Pressure 29.95 in
Visibility 9.0 miles
Clouds Few 2100 ft
Scattered Clouds 2900 ft
Mostly Cloudy 4600 ft
Heat Index 87 °F
Dew Point 75 °F
Humidity 81%
Rainfall 0.11 in
Snow Depth Not available.
6:18 AM 6:32 PM
Waxing Crescent, 7% visible
METAR PGUM 300954Z 06013G21KT 9SM FEW021 SCT029 BKN046 27/24 A2997 RMK AO2 RAB00E09B28E40 SLP140 P0000 T02720244

Get Your Daily Forecast Email!

Thanks for signing up!

Be on the lookout for a verification email in your inbox.

You'll start receiving severe weather alerts in your inbox..

×

10-Day Weather Forecast

Almanac

Astronomy

Mar. 30, 2017 Rise Set
Actual Time
Civil Twilight
Nautical Twilight
Astronomical Twilight
Moon
Length of Visible Light
Length of Day
Tomorrow will be .
, % of the Moon is Illuminated

Today's Extremes

State Highs State Lows

Community

WunderPhotos

Upload Photos

1,962,540 photos uploaded!

WunderBlog® & News

Nearby

Air Quality

  Air Quality AQ Index Pollutant
Not available.

Snow Depth

Station Depth Elevation

Earthquake Activity

City Distance Mag. Time & Date
Minimum magnitude displayed is 2.5.

Earthquake Activity

City Distance Mag. Time & Date
Minimum magnitude displayed is 2.5.

Coastal Water Temperatures

Place Temperature

Stations

Nearby Weather Stations

Station Location Temp. Windchill Dew Point Humidity Wind Precip. Elev Updated Type
                   

Watches & Warnings

High Surf Advisory
Issued: 3:58 PM GMT Mar. 30, 2017 – National Weather Service

... High surf advisory remains in effect until 6 PM chst Friday...

Along north facing shores... hazardous surf of 8 to 10 feet is
expected through Friday. Surf will begin to decrease Friday
afternoon and could fall below hazardous levels Friday evening.

Precautionary/preparedness actions...

Avoid venturing out to exposed reef lines and beaches...
especially along north facing shores... as rip currents will be
life threatening.




Ziobro